sensor_id;sensor_type;location;lat;lon;timestamp;pressure;altitude;pressure_sealevel;temperature;humidity
53526;BME280;40551;50.478;19.378;2023-02-16T00:00:36;98826.63;;;-2.14;85.53
53526;BME280;40551;50.478;19.378;2023-02-16T00:03:28;98822.58;;;-2.15;85.76
53526;BME280;40551;50.478;19.378;2023-02-16T00:06:00;98816.67;;;-2.17;85.72
53526;BME280;40551;50.478;19.378;2023-02-16T00:08:31;98815.88;;;-2.20;85.92
53526;BME280;40551;50.478;19.378;2023-02-16T00:11:01;98812.82;;;-2.19;85.86
53526;BME280;40551;50.478;19.378;2023-02-16T00:13:51;98809.38;;;-2.25;85.94
53526;BME280;40551;50.478;19.378;2023-02-16T00:16:24;98809.19;;;-2.24;85.98
53526;BME280;40551;50.478;19.378;2023-02-16T00:18:56;98807.33;;;-2.25;86.07
53526;BME280;40551;50.478;19.378;2023-02-16T00:21:26;98808.01;;;-2.26;86.18
53526;BME280;40551;50.478;19.378;2023-02-16T00:23:58;98804.55;;;-2.30;86.22
53526;BME280;40551;50.478;19.378;2023-02-16T00:26:28;98800.80;;;-2.30;86.26
53526;BME280;40551;50.478;19.378;2023-02-16T00:29:03;98800.21;;;-2.34;86.38
53526;BME280;40551;50.478;19.378;2023-02-16T00:31:33;98798.69;;;-2.35;86.36
53526;BME280;40551;50.478;19.378;2023-02-16T00:34:23;98796.40;;;-2.39;86.39
53526;BME280;40551;50.478;19.378;2023-02-16T00:36:57;98793.48;;;-2.36;86.66
53526;BME280;40551;50.478;19.378;2023-02-16T00:39:29;98791.53;;;-2.34;86.52
53526;BME280;40551;50.478;19.378;2023-02-16T00:42:04;98784.73;;;-2.33;86.51
53526;BME280;40551;50.478;19.378;2023-02-16T00:44:40;98784.54;;;-2.32;86.36
53526;BME280;40551;50.478;19.378;2023-02-16T00:47:18;98780.64;;;-2.33;86.59
53526;BME280;40551;50.478;19.378;2023-02-16T00:49:52;98779.27;;;-2.31;86.57
53526;BME280;40551;50.478;19.378;2023-02-16T00:52:31;98777.73;;;-2.31;86.57
53526;BME280;40551;50.478;19.378;2023-02-16T00:55:06;98777.06;;;-2.32;86.81
53526;BME280;40551;50.478;19.378;2023-02-16T00:57:41;98773.19;;;-2.33;86.63
53526;BME280;40551;50.478;19.378;2023-02-16T01:02:50;98769.81;;;-2.35;86.95
53526;BME280;40551;50.478;19.378;2023-02-16T01:05:24;98772.36;;;-2.35;86.93
53526;BME280;40551;50.478;19.378;2023-02-16T01:07:55;98771.02;;;-2.36;87.01
53526;BME280;40551;50.478;19.378;2023-02-16T01:10:46;98771.09;;;-2.38;86.99
53526;BME280;40551;50.478;19.378;2023-02-16T01:13:39;98770.94;;;-2.40;87.09
53526;BME280;40551;50.478;19.378;2023-02-16T01:16:17;98771.17;;;-2.43;86.94
53526;BME280;40551;50.478;19.378;2023-02-16T01:18:49;98769.50;;;-2.44;87.18
53526;BME280;40551;50.478;19.378;2023-02-16T01:21:22;98766.98;;;-2.45;87.24
53526;BME280;40551;50.478;19.378;2023-02-16T01:23:55;98768.86;;;-2.46;87.13
53526;BME280;40551;50.478;19.378;2023-02-16T01:26:25;98766.48;;;-2.46;87.29
53526;BME280;40551;50.478;19.378;2023-02-16T01:28:57;98763.16;;;-2.50;87.27
53526;BME280;40551;50.478;19.378;2023-02-16T01:31:29;98755.52;;;-2.50;87.25
53526;BME280;40551;50.478;19.378;2023-02-16T01:34:00;98751.98;;;-2.52;87.34
53526;BME280;40551;50.478;19.378;2023-02-16T01:36:32;98751.88;;;-2.54;87.27
53526;BME280;40551;50.478;19.378;2023-02-16T01:39:03;98751.33;;;-2.61;87.42
53526;BME280;40551;50.478;19.378;2023-02-16T01:41:45;98745.00;;;-2.67;87.34
53526;BME280;40551;50.478;19.378;2023-02-16T01:44:24;98740.13;;;-2.70;87.31
53526;BME280;40551;50.478;19.378;2023-02-16T01:47:01;98740.16;;;-2.71;87.46
53526;BME280;40551;50.478;19.378;2023-02-16T01:49:34;98740.67;;;-2.71;87.49
53526;BME280;40551;50.478;19.378;2023-02-16T01:52:06;98737.46;;;-2.72;87.51
53526;BME280;40551;50.478;19.378;2023-02-16T01:54:44;98732.95;;;-2.75;87.75
53526;BME280;40551;50.478;19.378;2023-02-16T01:57:28;98728.84;;;-2.74;87.56
53526;BME280;40551;50.478;19.378;2023-02-16T02:00:10;98729.38;;;-2.75;87.62
53526;BME280;40551;50.478;19.378;2023-02-16T02:02:48;98732.45;;;-2.76;87.47
53526;BME280;40551;50.478;19.378;2023-02-16T02:05:23;98733.96;;;-2.75;87.48
53526;BME280;40551;50.478;19.378;2023-02-16T02:08:13;98736.98;;;-2.74;87.36
53526;BME280;40551;50.478;19.378;2023-02-16T02:10:56;98737.18;;;-2.75;87.47
53526;BME280;40551;50.478;19.378;2023-02-16T02:13:38;98737.52;;;-2.75;87.29
53526;BME280;40551;50.478;19.378;2023-02-16T02:16:17;98735.99;;;-2.75;87.55
53526;BME280;40551;50.478;19.378;2023-02-16T02:18:50;98734.14;;;-2.75;87.39
53526;BME280;40551;50.478;19.378;2023-02-16T02:21:41;98730.09;;;-2.77;87.26
53526;BME280;40551;50.478;19.378;2023-02-16T02:24:55;98734.59;;;-2.81;87.23
53526;BME280;40551;50.478;19.378;2023-02-16T02:27:34;98731.60;;;-2.84;87.33
53526;BME280;40551;50.478;19.378;2023-02-16T02:30:29;98734.17;;;-2.86;87.20
53526;BME280;40551;50.478;19.378;2023-02-16T02:33:15;98742.01;;;-2.86;87.46
53526;BME280;40551;50.478;19.378;2023-02-16T02:36:02;98738.62;;;-2.87;87.45
53526;BME280;40551;50.478;19.378;2023-02-16T02:38:43;98739.67;;;-2.89;87.48
53526;BME280;40551;50.478;19.378;2023-02-16T02:41:24;98739.04;;;-2.91;87.38
53526;BME280;40551;50.478;19.378;2023-02-16T02:44:21;98739.43;;;-2.94;87.31
53526;BME280;40551;50.478;19.378;2023-02-16T02:46:56;98736.06;;;-2.96;87.13
53526;BME280;40551;50.478;19.378;2023-02-16T02:49:28;98733.52;;;-2.96;87.49
53526;BME280;40551;50.478;19.378;2023-02-16T02:51:58;98732.50;;;-2.95;87.50
53526;BME280;40551;50.478;19.378;2023-02-16T02:54:32;98729.02;;;-3.00;87.57
53526;BME280;40551;50.478;19.378;2023-02-16T02:57:25;98727.00;;;-3.01;87.35
53526;BME280;40551;50.478;19.378;2023-02-16T03:00:18;98726.04;;;-3.03;87.55
53526;BME280;40551;50.478;19.378;2023-02-16T03:03:13;98729.27;;;-3.04;87.56
53526;BME280;40551;50.478;19.378;2023-02-16T03:05:47;98728.42;;;-3.04;87.57
53526;BME280;40551;50.478;19.378;2023-02-16T03:08:23;98722.95;;;-3.02;87.95
53526;BME280;40551;50.478;19.378;2023-02-16T03:10:58;98722.80;;;-3.03;87.54
53526;BME280;40551;50.478;19.378;2023-02-16T03:13:52;98719.27;;;-3.04;87.58
53526;BME280;40551;50.478;19.378;2023-02-16T03:16:30;98720.39;;;-3.01;88.15
53526;BME280;40551;50.478;19.378;2023-02-16T03:19:03;98718.95;;;-2.98;88.28
53526;BME280;40551;50.478;19.378;2023-02-16T03:21:53;98722.30;;;-2.94;88.50
53526;BME280;40551;50.478;19.378;2023-02-16T03:24:44;98724.40;;;-2.89;88.94
53526;BME280;40551;50.478;19.378;2023-02-16T03:27:37;98720.95;;;-2.86;88.74
53526;BME280;40551;50.478;19.378;2023-02-16T03:30:28;98718.00;;;-2.83;88.75
53526;BME280;40551;50.478;19.378;2023-02-16T03:33:00;98716.42;;;-2.80;88.87
53526;BME280;40551;50.478;19.378;2023-02-16T03:35:30;98713.10;;;-2.76;89.20
53526;BME280;40551;50.478;19.378;2023-02-16T03:38:03;98710.23;;;-2.77;89.22
53526;BME280;40551;50.478;19.378;2023-02-16T03:40:35;98708.45;;;-2.74;89.30
53526;BME280;40551;50.478;19.378;2023-02-16T03:43:10;98699.23;;;-2.71;89.34
53526;BME280;40551;50.478;19.378;2023-02-16T03:45:41;98687.65;;;-2.69;89.29
53526;BME280;40551;50.478;19.378;2023-02-16T03:48:13;98691.12;;;-2.72;89.15
53526;BME280;40551;50.478;19.378;2023-02-16T03:50:45;98697.33;;;-2.69;89.57
53526;BME280;40551;50.478;19.378;2023-02-16T03:53:15;98698.40;;;-2.63;90.11
53526;BME280;40551;50.478;19.378;2023-02-16T03:55:48;98706.69;;;-2.61;90.39
53526;BME280;40551;50.478;19.378;2023-02-16T03:58:19;98703.30;;;-2.55;90.35
53526;BME280;40551;50.478;19.378;2023-02-16T04:00:54;98700.06;;;-2.54;90.33
53526;BME280;40551;50.478;19.378;2023-02-16T04:03:28;98705.90;;;-2.49;90.31
53526;BME280;40551;50.478;19.378;2023-02-16T04:06:00;98704.95;;;-2.44;90.22
53526;BME280;40551;50.478;19.378;2023-02-16T04:08:32;98708.92;;;-2.40;90.41
53526;BME280;40551;50.478;19.378;2023-02-16T04:11:02;98709.54;;;-2.37;90.23
53526;BME280;40551;50.478;19.378;2023-02-16T04:13:55;98707.38;;;-2.38;90.03
53526;BME280;40551;50.478;19.378;2023-02-16T04:16:27;98706.88;;;-2.39;89.86
53526;BME280;40551;50.478;19.378;2023-02-16T04:18:58;98703.00;;;-2.40;89.48
53526;BME280;40551;50.478;19.378;2023-02-16T04:21:29;98702.00;;;-2.41;89.56
53526;BME280;40551;50.478;19.378;2023-02-16T04:24:00;98698.18;;;-2.45;89.65
53526;BME280;40551;50.478;19.378;2023-02-16T04:26:35;98696.89;;;-2.41;90.05
53526;BME280;40551;50.478;19.378;2023-02-16T04:29:05;98694.26;;;-2.37;90.27
53526;BME280;40551;50.478;19.378;2023-02-16T04:31:37;98690.85;;;-2.36;90.39
53526;BME280;40551;50.478;19.378;2023-02-16T04:34:08;98689.91;;;-2.33;90.37
53526;BME280;40551;50.478;19.378;2023-02-16T04:36:39;98681.70;;;-2.30;90.36
53526;BME280;40551;50.478;19.378;2023-02-16T04:39:10;98674.95;;;-2.32;90.28
53526;BME280;40551;50.478;19.378;2023-02-16T04:41:40;98668.98;;;-2.32;89.98
53526;BME280;40551;50.478;19.378;2023-02-16T04:44:12;98668.94;;;-2.36;89.88
53526;BME280;40551;50.478;19.378;2023-02-16T04:46:44;98666.59;;;-2.38;89.93
53526;BME280;40551;50.478;19.378;2023-02-16T04:49:14;98670.84;;;-2.38;90.04
53526;BME280;40551;50.478;19.378;2023-02-16T04:51:46;98668.16;;;-2.40;90.36
53526;BME280;40551;50.478;19.378;2023-02-16T04:54:16;98664.90;;;-2.38;90.34
53526;BME280;40551;50.478;19.378;2023-02-16T04:56:48;98668.68;;;-2.40;90.19
53526;BME280;40551;50.478;19.378;2023-02-16T04:59:20;98670.38;;;-2.40;90.19
53526;BME280;40551;50.478;19.378;2023-02-16T05:01:50;98671.19;;;-2.38;90.21
53526;BME280;40551;50.478;19.378;2023-02-16T05:04:22;98673.41;;;-2.39;90.38
53526;BME280;40551;50.478;19.378;2023-02-16T05:06:54;98674.86;;;-2.36;90.58
53526;BME280;40551;50.478;19.378;2023-02-16T05:09:24;98679.25;;;-2.34;90.49
53526;BME280;40551;50.478;19.378;2023-02-16T05:11:56;98681.13;;;-2.35;90.56
53526;BME280;40551;50.478;19.378;2023-02-16T05:14:46;98680.90;;;-2.32;90.62
53526;BME280;40551;50.478;19.378;2023-02-16T05:17:16;98678.14;;;-2.30;90.69
53526;BME280;40551;50.478;19.378;2023-02-16T05:19:50;98675.23;;;-2.30;90.81
53526;BME280;40551;50.478;19.378;2023-02-16T05:22:22;98671.09;;;-2.27;90.77
53526;BME280;40551;50.478;19.378;2023-02-16T05:24:53;98669.71;;;-2.26;90.80
53526;BME280;40551;50.478;19.378;2023-02-16T05:27:25;98683.77;;;-2.24;90.71
53526;BME280;40551;50.478;19.378;2023-02-16T05:29:57;98677.48;;;-2.25;91.02
53526;BME280;40551;50.478;19.378;2023-02-16T05:32:29;98677.41;;;-2.20;91.02
53526;BME280;40551;50.478;19.378;2023-02-16T05:34:59;98677.52;;;-2.18;90.85
53526;BME280;40551;50.478;19.378;2023-02-16T05:37:31;98685.86;;;-2.19;91.10
53526;BME280;40551;50.478;19.378;2023-02-16T05:40:01;98680.54;;;-2.16;90.85
53526;BME280;40551;50.478;19.378;2023-02-16T05:42:33;98677.67;;;-2.18;91.04
53526;BME280;40551;50.478;19.378;2023-02-16T05:45:03;98678.61;;;-2.14;91.13
53526;BME280;40551;50.478;19.378;2023-02-16T05:47:35;98678.95;;;-2.14;91.25
53526;BME280;40551;50.478;19.378;2023-02-16T05:50:06;98678.02;;;-2.10;91.44
53526;BME280;40551;50.478;19.378;2023-02-16T05:52:38;98670.70;;;-2.10;91.36
53526;BME280;40551;50.478;19.378;2023-02-16T05:55:10;98668.06;;;-2.07;91.28
53526;BME280;40551;50.478;19.378;2023-02-16T05:57:40;98670.55;;;-2.04;91.21
53526;BME280;40551;50.478;19.378;2023-02-16T06:02:46;98678.79;;;-2.00;91.34
53526;BME280;40551;50.478;19.378;2023-02-16T06:05:18;98680.91;;;-1.96;91.32
53526;BME280;40551;50.478;19.378;2023-02-16T06:07:49;98685.42;;;-1.93;91.05
53526;BME280;40551;50.478;19.378;2023-02-16T06:10:20;98689.42;;;-1.90;91.05
53526;BME280;40551;50.478;19.378;2023-02-16T06:12:51;98691.96;;;-1.90;91.07
53526;BME280;40551;50.478;19.378;2023-02-16T06:15:21;98690.15;;;-1.85;91.17
53526;BME280;40551;50.478;19.378;2023-02-16T06:17:53;98695.36;;;-1.83;91.35
53526;BME280;40551;50.478;19.378;2023-02-16T06:20:23;98702.73;;;-1.78;91.11
53526;BME280;40551;50.478;19.378;2023-02-16T06:22:55;98706.13;;;-1.77;91.00
53526;BME280;40551;50.478;19.378;2023-02-16T06:25:25;98709.55;;;-1.72;91.00
53526;BME280;40551;50.478;19.378;2023-02-16T06:27:57;98711.95;;;-1.66;91.43
53526;BME280;40551;50.478;19.378;2023-02-16T06:30:29;98711.17;;;-1.54;91.56
53526;BME280;40551;50.478;19.378;2023-02-16T06:33:01;98715.29;;;-1.43;91.50
53526;BME280;40551;50.478;19.378;2023-02-16T06:35:33;98716.38;;;-1.33;91.43
53526;BME280;40551;50.478;19.378;2023-02-16T06:38:05;98714.24;;;-1.22;91.33
53526;BME280;40551;50.478;19.378;2023-02-16T06:40:35;98711.11;;;-1.07;91.32
53526;BME280;40551;50.478;19.378;2023-02-16T06:43:06;98706.75;;;-0.97;91.55
53526;BME280;40551;50.478;19.378;2023-02-16T06:45:37;98705.23;;;-0.85;91.33
53526;BME280;40551;50.478;19.378;2023-02-16T06:48:08;98703.92;;;-0.75;91.10
53526;BME280;40551;50.478;19.378;2023-02-16T06:50:40;98700.59;;;-0.55;91.50
53526;BME280;40551;50.478;19.378;2023-02-16T06:53:10;98698.59;;;-0.44;90.94
53526;BME280;40551;50.478;19.378;2023-02-16T06:55:42;98702.37;;;-0.40;90.88
53526;BME280;40551;50.478;19.378;2023-02-16T06:58:14;98703.53;;;-0.27;90.89
53526;BME280;40551;50.478;19.378;2023-02-16T07:00:46;98705.63;;;-0.17;90.62
53526;BME280;40551;50.478;19.378;2023-02-16T07:03:17;98706.50;;;-0.08;90.60
53526;BME280;40551;50.478;19.378;2023-02-16T07:05:49;98710.15;;;0.01;90.20
53526;BME280;40551;50.478;19.378;2023-02-16T07:08:20;98707.90;;;0.02;90.10
53526;BME280;40551;50.478;19.378;2023-02-16T07:10:53;98708.06;;;0.08;89.92
53526;BME280;40551;50.478;19.378;2023-02-16T07:13:25;98706.44;;;0.16;89.93
53526;BME280;40551;50.478;19.378;2023-02-16T07:15:56;98702.34;;;0.22;89.75
53526;BME280;40551;50.478;19.378;2023-02-16T07:18:26;98701.89;;;0.30;89.68
53526;BME280;40551;50.478;19.378;2023-02-16T07:20:58;98703.16;;;0.33;89.99
53526;BME280;40551;50.478;19.378;2023-02-16T07:23:30;98698.20;;;0.44;89.86
53526;BME280;40551;50.478;19.378;2023-02-16T07:26:02;98701.77;;;0.54;89.80
53526;BME280;40551;50.478;19.378;2023-02-16T07:28:34;98702.33;;;0.62;89.34
53526;BME280;40551;50.478;19.378;2023-02-16T07:31:08;98700.46;;;0.73;89.56
53526;BME280;40551;50.478;19.378;2023-02-16T07:33:41;98701.10;;;0.79;89.55
53526;BME280;40551;50.478;19.378;2023-02-16T07:36:13;98703.91;;;0.91;89.40
53526;BME280;40551;50.478;19.378;2023-02-16T07:38:45;98704.71;;;1.02;89.34
53526;BME280;40551;50.478;19.378;2023-02-16T07:41:17;98700.76;;;1.13;88.99
53526;BME280;40551;50.478;19.378;2023-02-16T07:43:47;98702.86;;;1.25;89.40
53526;BME280;40551;50.478;19.378;2023-02-16T07:46:19;98702.55;;;1.34;89.31
53526;BME280;40551;50.478;19.378;2023-02-16T07:48:51;98699.79;;;1.43;88.94
53526;BME280;40551;50.478;19.378;2023-02-16T07:51:23;98703.33;;;1.49;88.53
53526;BME280;40551;50.478;19.378;2023-02-16T07:53:55;98703.85;;;1.53;88.29
53526;BME280;40551;50.478;19.378;2023-02-16T07:56:29;98701.34;;;1.57;88.11
53526;BME280;40551;50.478;19.378;2023-02-16T07:59:02;98695.75;;;1.64;88.36
53526;BME280;40551;50.478;19.378;2023-02-16T08:01:34;98691.74;;;1.70;87.90
53526;BME280;40551;50.478;19.378;2023-02-16T08:04:04;98683.66;;;1.72;87.65
53526;BME280;40551;50.478;19.378;2023-02-16T08:06:36;98689.02;;;1.66;87.59
53526;BME280;40551;50.478;19.378;2023-02-16T08:09:06;98693.30;;;1.70;88.05
53526;BME280;40551;50.478;19.378;2023-02-16T08:11:38;98693.79;;;1.71;87.87
53526;BME280;40551;50.478;19.378;2023-02-16T08:14:09;98684.58;;;1.79;88.00
53526;BME280;40551;50.478;19.378;2023-02-16T08:16:41;98676.51;;;1.80;87.85
53526;BME280;40551;50.478;19.378;2023-02-16T08:19:13;98674.61;;;1.85;87.61
53526;BME280;40551;50.478;19.378;2023-02-16T08:21:43;98676.73;;;1.87;87.44
53526;BME280;40551;50.478;19.378;2023-02-16T08:24:18;98674.33;;;1.88;87.63
53526;BME280;40551;50.478;19.378;2023-02-16T08:26:51;98678.29;;;1.96;87.68
53526;BME280;40551;50.478;19.378;2023-02-16T08:29:23;98683.50;;;2.02;87.49
53526;BME280;40551;50.478;19.378;2023-02-16T08:31:55;98685.34;;;2.08;87.34
53526;BME280;40551;50.478;19.378;2023-02-16T08:34:28;98695.23;;;2.13;87.20
53526;BME280;40551;50.478;19.378;2023-02-16T08:37:01;98691.83;;;2.16;86.90
53526;BME280;40551;50.478;19.378;2023-02-16T08:39:34;98689.73;;;2.22;86.81
53526;BME280;40551;50.478;19.378;2023-02-16T08:42:06;98691.16;;;2.29;87.05
53526;BME280;40551;50.478;19.378;2023-02-16T08:44:39;98688.23;;;2.33;86.75
53526;BME280;40551;50.478;19.378;2023-02-16T08:47:11;98690.23;;;2.39;86.77
53526;BME280;40551;50.478;19.378;2023-02-16T08:49:46;98692.39;;;2.44;86.81
53526;BME280;40551;50.478;19.378;2023-02-16T08:52:16;98693.90;;;2.54;86.76
53526;BME280;40551;50.478;19.378;2023-02-16T08:54:48;98699.26;;;2.56;87.02
53526;BME280;40551;50.478;19.378;2023-02-16T08:57:20;98693.86;;;2.66;86.86
53526;BME280;40551;50.478;19.378;2023-02-16T08:59:50;98689.35;;;2.76;86.82
53526;BME280;40551;50.478;19.378;2023-02-16T09:02:42;98690.63;;;2.82;87.03
53526;BME280;40551;50.478;19.378;2023-02-16T09:05:14;98687.98;;;2.92;86.55
53526;BME280;40551;50.478;19.378;2023-02-16T09:07:44;98690.60;;;2.99;86.00
53526;BME280;40551;50.478;19.378;2023-02-16T09:10:16;98694.51;;;2.99;85.95
53526;BME280;40551;50.478;19.378;2023-02-16T09:12:48;98697.30;;;3.06;85.91
53526;BME280;40551;50.478;19.378;2023-02-16T09:15:20;98698.30;;;3.10;85.72
53526;BME280;40551;50.478;19.378;2023-02-16T09:17:53;98702.39;;;3.19;85.78
53526;BME280;40551;50.478;19.378;2023-02-16T09:20:23;98702.39;;;3.26;85.65
53526;BME280;40551;50.478;19.378;2023-02-16T09:22:57;98702.92;;;3.30;85.37
53526;BME280;40551;50.478;19.378;2023-02-16T09:25:28;98706.42;;;3.40;85.50
53526;BME280;40551;50.478;19.378;2023-02-16T09:28:02;98704.93;;;3.50;85.12
53526;BME280;40551;50.478;19.378;2023-02-16T09:30:35;98702.58;;;3.60;85.12
53526;BME280;40551;50.478;19.378;2023-02-16T09:33:08;98700.05;;;3.70;84.82
53526;BME280;40551;50.478;19.378;2023-02-16T09:35:40;98702.61;;;3.78;84.37
53526;BME280;40551;50.478;19.378;2023-02-16T09:38:12;98705.25;;;3.84;84.10
53526;BME280;40551;50.478;19.378;2023-02-16T09:40:46;98699.52;;;3.92;84.36
53526;BME280;40551;50.478;19.378;2023-02-16T09:43:28;98703.70;;;4.02;84.38
53526;BME280;40551;50.478;19.378;2023-02-16T09:46:11;98708.38;;;4.12;83.77
53526;BME280;40551;50.478;19.378;2023-02-16T09:48:46;98709.22;;;4.16;83.24
53526;BME280;40551;50.478;19.378;2023-02-16T09:51:22;98701.56;;;4.21;83.28
53526;BME280;40551;50.478;19.378;2023-02-16T09:54:15;98695.21;;;4.29;83.25
53526;BME280;40551;50.478;19.378;2023-02-16T09:56:53;98684.63;;;4.34;82.89
53526;BME280;40551;50.478;19.378;2023-02-16T09:59:40;98679.94;;;4.39;82.71
53526;BME280;40551;50.478;19.378;2023-02-16T10:02:28;98679.46;;;4.45;82.64
53526;BME280;40551;50.478;19.378;2023-02-16T10:05:20;98673.73;;;4.50;82.22
53526;BME280;40551;50.478;19.378;2023-02-16T10:08:01;98677.34;;;4.57;82.17
53526;BME280;40551;50.478;19.378;2023-02-16T10:10:39;98676.12;;;4.64;82.28
53526;BME280;40551;50.478;19.378;2023-02-16T10:13:20;98676.90;;;4.72;82.20
53526;BME280;40551;50.478;19.378;2023-02-16T10:16:31;98668.88;;;4.75;81.38
53526;BME280;40551;50.478;19.378;2023-02-16T10:19:16;98665.23;;;4.75;80.84
53526;BME280;40551;50.478;19.378;2023-02-16T10:21:54;98664.39;;;4.78;81.06
53526;BME280;40551;50.478;19.378;2023-02-16T10:24:29;98659.46;;;4.84;80.50
53526;BME280;40551;50.478;19.378;2023-02-16T10:27:06;98656.84;;;4.88;80.64
53526;BME280;40551;50.478;19.378;2023-02-16T10:29:41;98650.35;;;4.93;80.59
53526;BME280;40551;50.478;19.378;2023-02-16T10:32:25;98648.48;;;4.99;80.52
53526;BME280;40551;50.478;19.378;2023-02-16T10:35:08;98646.20;;;5.04;79.56
53526;BME280;40551;50.478;19.378;2023-02-16T10:37:54;98647.36;;;5.08;79.69
53526;BME280;40551;50.478;19.378;2023-02-16T10:40:34;98637.81;;;5.13;79.75
53526;BME280;40551;50.478;19.378;2023-02-16T10:43:15;98633.06;;;5.18;79.38
53526;BME280;40551;50.478;19.378;2023-02-16T10:45:50;98630.80;;;5.25;79.18
53526;BME280;40551;50.478;19.378;2023-02-16T10:48:24;98627.89;;;5.28;78.92
53526;BME280;40551;50.478;19.378;2023-02-16T10:50:59;98626.56;;;5.33;78.83
53526;BME280;40551;50.478;19.378;2023-02-16T10:53:37;98611.66;;;5.42;79.33
53526;BME280;40551;50.478;19.378;2023-02-16T10:56:26;98608.41;;;5.51;78.87
53526;BME280;40551;50.478;19.378;2023-02-16T10:59:06;98607.55;;;5.57;78.64
53526;BME280;40551;50.478;19.378;2023-02-16T11:01:41;98604.84;;;5.65;78.67
53526;BME280;40551;50.478;19.378;2023-02-16T11:04:32;98600.77;;;5.74;78.42
53526;BME280;40551;50.478;19.378;2023-02-16T11:07:06;98602.03;;;5.85;78.68
53526;BME280;40551;50.478;19.378;2023-02-16T11:09:39;98603.08;;;5.94;78.41
53526;BME280;40551;50.478;19.378;2023-02-16T11:12:22;98593.02;;;6.02;78.41
53526;BME280;40551;50.478;19.378;2023-02-16T11:14:55;98590.00;;;6.09;77.82
53526;BME280;40551;50.478;19.378;2023-02-16T11:17:28;98584.71;;;6.14;77.26
53526;BME280;40551;50.478;19.378;2023-02-16T11:20:03;98581.09;;;6.14;76.34
53526;BME280;40551;50.478;19.378;2023-02-16T11:22:37;98582.15;;;6.14;76.05
53526;BME280;40551;50.478;19.378;2023-02-16T11:25:23;98579.12;;;6.12;75.70
53526;BME280;40551;50.478;19.378;2023-02-16T11:27:58;98579.47;;;6.13;75.44
53526;BME280;40551;50.478;19.378;2023-02-16T11:30:33;98573.38;;;6.14;75.32
53526;BME280;40551;50.478;19.378;2023-02-16T11:33:20;98575.37;;;6.15;75.16
53526;BME280;40551;50.478;19.378;2023-02-16T11:35:53;98569.75;;;6.20;75.35
53526;BME280;40551;50.478;19.378;2023-02-16T11:38:28;98572.61;;;6.27;75.73
53526;BME280;40551;50.478;19.378;2023-02-16T11:41:02;98572.98;;;6.32;75.13
53526;BME280;40551;50.478;19.378;2023-02-16T11:43:37;98573.58;;;6.36;74.97
53526;BME280;40551;50.478;19.378;2023-02-16T11:46:15;98568.16;;;6.41;75.06
53526;BME280;40551;50.478;19.378;2023-02-16T11:48:47;98566.59;;;6.47;74.87
53526;BME280;40551;50.478;19.378;2023-02-16T11:51:33;98569.65;;;6.53;74.52
53526;BME280;40551;50.478;19.378;2023-02-16T11:54:14;98572.00;;;6.60;74.85
53526;BME280;40551;50.478;19.378;2023-02-16T11:57:02;98567.38;;;6.65;74.03
53526;BME280;40551;50.478;19.378;2023-02-16T11:59:37;98559.67;;;6.67;73.44
53526;BME280;40551;50.478;19.378;2023-02-16T12:02:29;98556.31;;;6.69;73.43
53526;BME280;40551;50.478;19.378;2023-02-16T12:05:20;98556.90;;;6.73;73.81
53526;BME280;40551;50.478;19.378;2023-02-16T12:08:06;98554.28;;;6.79;73.54
53526;BME280;40551;50.478;19.378;2023-02-16T12:10:49;98553.42;;;6.85;73.47
53526;BME280;40551;50.478;19.378;2023-02-16T12:13:34;98549.83;;;6.91;73.39
53526;BME280;40551;50.478;19.378;2023-02-16T12:16:20;98545.95;;;6.94;73.26
53526;BME280;40551;50.478;19.378;2023-02-16T12:19:07;98546.05;;;6.98;73.13
53526;BME280;40551;50.478;19.378;2023-02-16T12:21:45;98545.33;;;7.01;72.72
53526;BME280;40551;50.478;19.378;2023-02-16T12:24:29;98541.26;;;7.03;72.35
53526;BME280;40551;50.478;19.378;2023-02-16T12:27:11;98541.95;;;7.06;72.27
53526;BME280;40551;50.478;19.378;2023-02-16T12:29:52;98541.65;;;7.08;72.11
53526;BME280;40551;50.478;19.378;2023-02-16T12:32:42;98545.46;;;7.10;71.76
53526;BME280;40551;50.478;19.378;2023-02-16T12:35:32;98534.17;;;7.11;71.51
53526;BME280;40551;50.478;19.378;2023-02-16T12:38:16;98532.29;;;7.14;71.68
53526;BME280;40551;50.478;19.378;2023-02-16T12:40:59;98534.56;;;7.16;71.67
53526;BME280;40551;50.478;19.378;2023-02-16T12:43:38;98534.45;;;7.21;71.36
53526;BME280;40551;50.478;19.378;2023-02-16T12:46:16;98533.23;;;7.24;71.43
53526;BME280;40551;50.478;19.378;2023-02-16T12:48:51;98527.83;;;7.27;71.15
53526;BME280;40551;50.478;19.378;2023-02-16T12:51:29;98525.77;;;7.29;71.13
53526;BME280;40551;50.478;19.378;2023-02-16T12:54:07;98521.91;;;7.30;70.62
53526;BME280;40551;50.478;19.378;2023-02-16T12:56:44;98520.59;;;7.32;70.57
53526;BME280;40551;50.478;19.378;2023-02-16T12:59:18;98521.14;;;7.35;70.61
53526;BME280;40551;50.478;19.378;2023-02-16T13:01:56;98514.81;;;7.37;70.40
53526;BME280;40551;50.478;19.378;2023-02-16T13:04:39;98511.00;;;7.37;69.84
53526;BME280;40551;50.478;19.378;2023-02-16T13:07:16;98508.65;;;7.38;70.49
53526;BME280;40551;50.478;19.378;2023-02-16T13:09:59;98508.65;;;7.41;70.39
53526;BME280;40551;50.478;19.378;2023-02-16T13:12:38;98508.48;;;7.44;70.26
53526;BME280;40551;50.478;19.378;2023-02-16T13:15:14;98509.14;;;7.47;70.24
53526;BME280;40551;50.478;19.378;2023-02-16T13:17:51;98507.51;;;7.48;69.97
53526;BME280;40551;50.478;19.378;2023-02-16T13:20:24;98505.08;;;7.48;70.05
53526;BME280;40551;50.478;19.378;2023-02-16T13:26:08;98500.16;;;7.50;69.81
53526;BME280;40551;50.478;19.378;2023-02-16T13:29:00;98491.73;;;7.52;69.43
53526;BME280;40551;50.478;19.378;2023-02-16T13:31:48;98492.34;;;7.53;69.73
53526;BME280;40551;50.478;19.378;2023-02-16T13:34:50;98491.86;;;7.55;69.60
53526;BME280;40551;50.478;19.378;2023-02-16T13:37:35;98489.92;;;7.56;69.25
53526;BME280;40551;50.478;19.378;2023-02-16T13:40:34;98488.04;;;7.55;69.09
53526;BME280;40551;50.478;19.378;2023-02-16T13:43:16;98486.23;;;7.54;68.65
53526;BME280;40551;50.478;19.378;2023-02-16T13:45:54;98483.27;;;7.54;68.61
53526;BME280;40551;50.478;19.378;2023-02-16T13:48:31;98484.27;;;7.55;68.84
53526;BME280;40551;50.478;19.378;2023-02-16T13:51:13;98483.73;;;7.55;68.73